createdAt,value
2022-09-17T00:00:03.358Z,1004.94
2022-09-17T00:05:02.999Z,1004.78
2022-09-17T00:10:02.559Z,1004.8
2022-09-17T00:15:03.287Z,1004.94
2022-09-17T00:20:02.848Z,1004.9
2022-09-17T00:25:02.614Z,1004.98
2022-09-17T00:30:06.607Z,1004.99
2022-09-17T00:35:03.273Z,1004.93
2022-09-17T00:40:03.187Z,1005.03
2022-09-17T00:45:02.705Z,1005.01
2022-09-17T00:50:03.272Z,1005.01
2022-09-17T00:55:03.950Z,1005.07
2022-09-17T01:00:02.570Z,1005.08
2022-09-17T01:05:02.648Z,1005.19
2022-09-17T01:10:03.425Z,1005.22
2022-09-17T01:15:03.001Z,1005.17
2022-09-17T01:20:03.439Z,1005.26
2022-09-17T01:25:03.062Z,1005.16
2022-09-17T01:30:02.737Z,1005.23
2022-09-17T01:35:03.460Z,1005.21
2022-09-17T01:40:03.299Z,1005.25
2022-09-17T01:45:02.951Z,1005.27
2022-09-17T01:50:02.611Z,1005.3
2022-09-17T01:55:04.095Z,1005.33
2022-09-17T02:00:02.840Z,1005.4
2022-09-17T02:05:02.474Z,1005.48
2022-09-17T02:10:03.133Z,1005.51
2022-09-17T02:15:02.838Z,1005.49
2022-09-17T02:20:03.453Z,1005.54
2022-09-17T02:25:03.190Z,1005.52
2022-09-17T02:30:02.853Z,1005.46
2022-09-17T02:35:03.437Z,1005.53
2022-09-17T02:40:03.287Z,1005.54
2022-09-17T02:45:02.721Z,1005.59
2022-09-17T02:50:03.189Z,1005.48
2022-09-17T02:55:04.084Z,1005.49
2022-09-17T03:00:03.446Z,1005.43
2022-09-17T03:05:03.073Z,1005.31
2022-09-17T03:10:02.731Z,1005.45
2022-09-17T03:15:03.420Z,1005.44
2022-09-17T03:20:03.136Z,1005.4
2022-09-17T03:25:02.820Z,1005.43
2022-09-17T03:30:03.347Z,1005.48
2022-09-17T03:35:03.009Z,1005.54
2022-09-17T03:40:02.967Z,1005.53
2022-09-17T03:45:03.334Z,1005.48
2022-09-17T03:50:02.944Z,1005.61
2022-09-17T03:55:03.436Z,1005.57
2022-09-17T04:00:03.237Z,1005.61
2022-09-17T04:05:02.859Z,1005.54
2022-09-17T04:10:02.531Z,1005.55
2022-09-17T04:15:03.046Z,1005.5
2022-09-17T04:20:02.820Z,1005.51
2022-09-17T04:25:03.499Z,1005.49
2022-09-17T04:30:03.161Z,1005.54
2022-09-17T04:35:02.724Z,1005.53
2022-09-17T04:40:08.617Z,1005.56
2022-09-17T04:45:03.469Z,1005.5
2022-09-17T04:50:03.123Z,1005.57
2022-09-17T04:55:03.566Z,1005.54
2022-09-17T05:00:03.336Z,1005.61
2022-09-17T05:05:02.979Z,1005.73
2022-09-17T05:10:02.619Z,1005.76
2022-09-17T05:15:03.262Z,1005.8
2022-09-17T05:20:03.015Z,1005.76
2022-09-17T05:25:02.616Z,1005.86
2022-09-17T05:30:03.287Z,1005.94
2022-09-17T05:35:06.289Z,1005.89
2022-09-17T05:40:03.598Z,1005.96
2022-09-17T05:45:02.803Z,1006
2022-09-17T05:50:03.399Z,1006.03
2022-09-17T05:55:04.134Z,1006.07
2022-09-17T06:00:03.147Z,1006.05
2022-09-17T06:05:02.617Z,1006.08
2022-09-17T06:10:03.289Z,1006.15
2022-09-17T06:15:03.001Z,1006.33
2022-09-17T06:20:02.696Z,1006.31
2022-09-17T06:25:03.334Z,1006.3
2022-09-17T06:30:03.213Z,1006.42
2022-09-17T06:35:03.069Z,1006.4
2022-09-17T06:40:02.823Z,1006.4
2022-09-17T06:45:16.500Z,1006.29
2022-09-17T06:50:02.665Z,1006.47
2022-09-17T06:55:04.272Z,1006.41
2022-09-17T07:00:03.166Z,1006.57
2022-09-17T07:05:02.742Z,1006.55
2022-09-17T07:10:03.417Z,1006.55
2022-09-17T07:15:03.304Z,1006.41
2022-09-17T07:20:02.960Z,1006.49
2022-09-17T07:25:02.569Z,1006.47
2022-09-17T07:30:03.398Z,1006.4
2022-09-17T07:35:03.175Z,1006.48
2022-09-17T07:40:03.032Z,1006.51
2022-09-17T07:45:02.831Z,1006.46
2022-09-17T07:50:03.188Z,1006.44
2022-09-17T07:55:04.093Z,1006.34
2022-09-17T08:00:02.797Z,1006.47
2022-09-17T08:05:03.439Z,1006.64
2022-09-17T08:10:03.092Z,1006.77
2022-09-17T08:15:03.060Z,1006.65
2022-09-17T08:20:02.837Z,1006.71
2022-09-17T08:25:03.597Z,1006.74
2022-09-17T08:30:03.176Z,1006.73
2022-09-17T08:35:02.753Z,1006.77
2022-09-17T08:40:02.787Z,1006.99
2022-09-17T08:45:03.171Z,1006.83
2022-09-17T08:50:02.762Z,1006.94
2022-09-17T08:55:03.409Z,1006.98
2022-09-17T09:00:03.235Z,1006.9
2022-09-17T09:05:02.857Z,1007.01
2022-09-17T09:10:02.495Z,1007.02
2022-09-17T09:15:03.160Z,1006.99
2022-09-17T09:20:02.924Z,1007.09
2022-09-17T09:25:02.620Z,1007.04
2022-09-17T09:30:03.252Z,1007.18
2022-09-17T09:35:02.831Z,1007.26
2022-09-17T09:40:02.681Z,1007.39
2022-09-17T09:45:05.926Z,1007.35
2022-09-17T09:50:02.962Z,1007.34
2022-09-17T09:55:03.738Z,1007.37
2022-09-17T10:00:02.598Z,1007.37
2022-09-17T10:05:03.194Z,1007.4
2022-09-17T10:10:02.948Z,1007.43
2022-09-17T10:15:02.636Z,1007.48
2022-09-17T10:20:02.578Z,1007.54
2022-09-17T10:25:02.531Z,1007.55
2022-09-17T10:30:03.340Z,1007.58
2022-09-17T10:35:02.888Z,1007.42
2022-09-17T10:40:02.779Z,1007.52
2022-09-17T10:45:03.331Z,1007.38
2022-09-17T10:50:02.968Z,1007.25
2022-09-17T10:55:03.826Z,1007.21
2022-09-17T11:00:03.196Z,1007.12
2022-09-17T11:05:02.806Z,1007.22
2022-09-17T11:10:02.652Z,1007.13
2022-09-17T11:15:03.364Z,1007.08
2022-09-17T11:20:03.038Z,1007.24
2022-09-17T11:25:02.667Z,1007.14
2022-09-17T11:30:03.504Z,1007.2
2022-09-17T11:35:03.123Z,1007.21
2022-09-17T11:40:02.865Z,1007.25
2022-09-17T11:45:03.468Z,1007.13
2022-09-17T11:50:03.034Z,1007.25
2022-09-17T11:55:03.604Z,1007.14
2022-09-17T12:00:03.370Z,1007.03
2022-09-17T12:05:02.967Z,1007
2022-09-17T12:10:02.635Z,1006.95
2022-09-17T12:15:02.660Z,1006.85
2022-09-17T12:20:03.409Z,1006.9
2022-09-17T12:25:03.232Z,1006.91
2022-09-17T12:30:03.155Z,1006.73
2022-09-17T12:35:02.738Z,1006.7
2022-09-17T12:40:03.727Z,1006.6
2022-09-17T12:45:03.009Z,1006.57
2022-09-17T12:50:02.770Z,1006.39
2022-09-17T12:55:04.557Z,1006.49
2022-09-17T13:00:08.689Z,1006.32
2022-09-17T13:05:03.334Z,1006.37
2022-09-17T13:10:03.257Z,1006.46
2022-09-17T13:15:02.799Z,1006.38
2022-09-17T13:20:02.942Z,1006.35
2022-09-17T13:25:02.756Z,1006.25
2022-09-17T13:30:03.427Z,1006.29
2022-09-17T13:35:03.245Z,1006.33
2022-09-17T13:40:03.206Z,1006.26
2022-09-17T13:45:02.660Z,1006.39
2022-09-17T13:50:03.268Z,1006.3
2022-09-17T13:55:04.082Z,1006.31
2022-09-17T14:00:02.542Z,1006.42
2022-09-17T14:05:03.217Z,1006.31
2022-09-17T14:10:03.035Z,1006.28
2022-09-17T14:15:02.996Z,1006.21
2022-09-17T14:20:02.564Z,1006.18
2022-09-17T14:25:03.202Z,1006.14
2022-09-17T14:30:02.905Z,1006.2
2022-09-17T14:35:02.596Z,1006.26
2022-09-17T14:40:03.413Z,1006.24
2022-09-17T14:45:02.901Z,1006.27
2022-09-17T14:50:02.705Z,1006.21
2022-09-17T14:55:04.297Z,1006.25
2022-09-17T15:00:03.367Z,1006.33
2022-09-17T15:05:03.331Z,1006.39
2022-09-17T15:10:02.993Z,1006.42
2022-09-17T15:15:02.542Z,1006.5
2022-09-17T15:20:03.261Z,1006.43
2022-09-17T15:25:03.010Z,1006.37
2022-09-17T15:30:02.665Z,1006.3
2022-09-17T15:35:03.414Z,1006.37
2022-09-17T15:40:03.194Z,1006.34
2022-09-17T15:45:02.706Z,1006.34
2022-09-17T15:50:03.483Z,1006.33
2022-09-17T15:55:03.829Z,1006.38
2022-09-17T16:00:02.849Z,1006.44
2022-09-17T16:05:03.366Z,1006.53
2022-09-17T16:10:03.259Z,1006.5
2022-09-17T16:15:02.689Z,1006.44
2022-09-17T16:20:06.911Z,1006.6
2022-09-17T16:25:03.179Z,1006.69
2022-09-17T16:30:02.818Z,1006.63
2022-09-17T16:35:03.096Z,1006.7
2022-09-17T16:40:03.271Z,1006.87
2022-09-17T16:45:03.494Z,1006.78
2022-09-17T16:50:03.125Z,1006.82
2022-09-17T16:55:04.197Z,1006.73
2022-09-17T17:00:02.612Z,1006.83
2022-09-17T17:05:03.245Z,1006.79
2022-09-17T17:10:02.881Z,1006.84
2022-09-17T17:15:02.664Z,1006.79
2022-09-17T17:20:03.432Z,1006.85
2022-09-17T17:25:03.045Z,1006.78
2022-09-17T17:30:02.827Z,1006.76
2022-09-17T17:35:02.872Z,1006.71
2022-09-17T17:40:02.592Z,1006.68
2022-09-17T17:45:03.253Z,1006.63
2022-09-17T17:50:02.846Z,1006.67
2022-09-17T17:55:03.852Z,1006.68
2022-09-17T18:00:03.226Z,1006.71
2022-09-17T18:05:04.968Z,1006.71
2022-09-17T18:10:02.570Z,1006.69
2022-09-17T18:15:03.198Z,1006.76
2022-09-17T18:20:02.831Z,1006.81
2022-09-17T18:25:02.469Z,1006.88
2022-09-17T18:30:03.121Z,1006.76
2022-09-17T18:35:02.693Z,1006.83
2022-09-17T18:40:03.703Z,1006.84
2022-09-17T18:45:03.117Z,1006.75
2022-09-17T18:50:02.697Z,1006.75
2022-09-17T18:55:04.614Z,1006.83
2022-09-17T19:00:02.966Z,1006.84
2022-09-17T19:05:02.608Z,1006.83
2022-09-17T19:10:03.175Z,1006.74
2022-09-17T19:15:02.863Z,1006.69
2022-09-17T19:20:02.590Z,1006.72
2022-09-17T19:25:03.207Z,1006.71
2022-09-17T19:30:02.861Z,1006.69
2022-09-17T19:35:03.520Z,1006.69
2022-09-17T19:40:03.234Z,1006.64
2022-09-17T19:45:02.729Z,1006.61
2022-09-17T19:50:03.295Z,1006.55
2022-09-17T19:55:03.950Z,1006.45
2022-09-17T20:00:02.563Z,1006.6
2022-09-17T20:05:03.200Z,1006.51
2022-09-17T20:10:02.826Z,1006.43
2022-09-17T20:15:02.651Z,1006.59
2022-09-17T20:20:03.272Z,1006.53
2022-09-17T20:25:02.895Z,1006.58
2022-09-17T20:30:02.565Z,1006.61
2022-09-17T20:35:03.175Z,1006.62
2022-09-17T20:40:03.037Z,1006.66
2022-09-17T20:45:03.482Z,1006.61
2022-09-17T20:50:03.183Z,1006.65
2022-09-17T20:55:03.966Z,1006.58
2022-09-17T21:00:03.487Z,1006.47
2022-09-17T21:05:03.138Z,1006.49
2022-09-17T21:10:02.782Z,1006.45
2022-09-17T21:15:03.449Z,1006.38
2022-09-17T21:20:03.231Z,1006.48
2022-09-17T21:25:02.853Z,1006.48
2022-09-17T21:30:02.543Z,1006.55
2022-09-17T21:35:03.497Z,1006.44
2022-09-17T21:40:03.347Z,1006.5
2022-09-17T21:45:02.863Z,1006.55
2022-09-17T21:50:02.459Z,1006.51
2022-09-17T21:55:04.398Z,1006.51
2022-09-17T22:00:02.994Z,1006.66
2022-09-17T22:05:02.482Z,1006.64
2022-09-17T22:10:03.126Z,1006.65
2022-09-17T22:15:03.303Z,1006.66
2022-09-17T22:20:02.488Z,1006.67
2022-09-17T22:25:02.983Z,1006.59
2022-09-17T22:30:02.924Z,1006.62
2022-09-17T22:35:02.743Z,1006.64
2022-09-17T22:40:03.310Z,1006.61
2022-09-17T22:45:02.957Z,1006.64
2022-09-17T22:50:03.452Z,1006.7
2022-09-17T22:55:04.464Z,1006.78
2022-09-17T23:00:02.724Z,1006.71
2022-09-17T23:05:03.369Z,1006.7
2022-09-17T23:10:03.359Z,1006.64
2022-09-17T23:15:03.006Z,1006.59
2022-09-17T23:20:02.656Z,1006.61
2022-09-17T23:25:03.267Z,1006.61
2022-09-17T23:30:02.949Z,1006.59
2022-09-17T23:35:02.501Z,1006.55
2022-09-17T23:40:03.204Z,1006.69
2022-09-17T23:45:02.762Z,1006.76
2022-09-17T23:50:03.350Z,1006.65
2022-09-17T23:55:04.482Z,1006.65
